Kisatchie, Louisiana
Current Conditions -  °F | °C
As of 11:56 PM on Sunday 25 Jan 2015 (Local Time) from KAQV Reporting Station
Clear Clear  
Wind Chill: 49°   Ceiling: Unl
Heat Index: 49°   Visibility: 10mi
Dew Point: 29°   Wind: 0mph
Humidity: 46%   Direction: NA
Pressure: 30.08"   Gusts: NA
Location:  31.5208°N, 93.1217°W
Report Text: KAQV 260556Z AUTO 00000KT 10SM CLR 09/M02 A3008 RMK AO2 SLP186 6//// T00941017 10167 20094 402000022 51019 PNO $
Loading
Personal Weather Stations






























Interactive Weather Map New forecast layout! Learn more

10-Day Weather Forecast

Advertisements
Track Severe Weather on mobile